Time;durP1;ratioP1;P1;durP2;ratioP2;P2;SDS_P1;SDS_P2;PMS_P1;PMS_P2;Temp;Humidity;BMP_temperature;BMP_pressure;BME280_temperature;BME280_humidity;BME280_pressure;Samples;Min_cycle;Max_cycle;Signal;HPM_P1;HPM_P2
2023/08/02 00:00:57;;;;;;;8.55;3.95;;;19.20;99.90;;;;;;4968692;28;20678;-87
2023/08/02 00:03:25;;;;;;;4.95;3.85;;;19.20;99.90;;;;;;4968847;28;20196;-88
2023/08/02 00:05:54;;;;;;;6.57;4.47;;;19.20;99.90;;;;;;4970504;28;20211;-86
2023/08/02 00:08:24;;;;;;;9.20;4.35;;;19.20;99.90;;;;;;4969653;28;20218;-85
2023/08/02 00:10:52;;;;;;;7.00;4.05;;;19.20;99.90;;;;;;4970151;28;20626;-87
2023/08/02 00:13:19;;;;;;;5.15;3.90;;;19.20;99.90;;;;;;4966900;28;20250;-86
2023/08/02 00:15:47;;;;;;;6.20;4.20;;;19.20;99.90;;;;;;4967950;28;20277;-88
2023/08/02 00:18:14;;;;;;;6.47;4.30;;;19.20;99.90;;;;;;4968175;28;20203;-86
2023/08/02 00:20:44;;;;;;;6.40;3.80;;;19.20;99.90;;;;;;4968337;28;20192;-88
2023/08/02 00:23:11;;;;;;;7.43;4.35;;;19.20;99.90;;;;;;4952773;28;20199;-88
2023/08/02 00:25:39;;;;;;;5.65;4.38;;;19.20;99.90;;;;;;4950035;28;20307;-87
2023/08/02 00:28:06;;;;;;;6.15;4.07;;;19.10;99.90;;;;;;4961758;28;20677;-86
2023/08/02 00:30:46;;;;;;;9.55;4.43;;;19.10;99.90;;;;;;4951762;28;20200;-88
2023/08/02 00:33:14;;;;;;;4.90;3.92;;;19.10;99.90;;;;;;4969147;28;20650;-85
2023/08/02 00:35:46;;;;;;;7.55;4.68;;;19.10;99.90;;;;;;4951846;28;20192;-87
2023/08/02 00:38:14;;;;;;;5.80;3.92;;;19.10;99.90;;;;;;4951944;28;20219;-87
2023/08/02 00:40:42;;;;;;;5.88;4.20;;;19.10;99.90;;;;;;4967906;28;20211;-85
2023/08/02 00:43:10;;;;;;;7.78;3.97;;;19.10;99.90;;;;;;4970233;28;20203;-87
2023/08/02 00:45:38;;;;;;;8.38;4.65;;;19.10;99.90;;;;;;4967851;28;20235;-87
2023/08/02 00:48:06;;;;;;;7.28;4.15;;;19.00;99.90;;;;;;4951170;28;20283;-88
2023/08/02 00:50:35;;;;;;;6.03;4.63;;;19.00;99.90;;;;;;4969729;28;20216;-87
2023/08/02 00:53:03;;;;;;;7.68;4.78;;;19.10;99.90;;;;;;4967834;28;20192;-86
2023/08/02 00:55:33;;;;;;;8.07;4.60;;;19.00;99.90;;;;;;4969279;28;20184;-86
2023/08/02 00:58:01;;;;;;;9.38;4.50;;;19.00;99.90;;;;;;4968890;28;20215;-87
2023/08/02 01:00:29;;;;;;;6.60;4.95;;;19.10;99.90;;;;;;4969136;28;20184;-86
2023/08/02 01:02:57;;;;;;;7.07;4.82;;;19.10;99.90;;;;;;4968745;28;20204;-87
2023/08/02 01:05:29;;;;;;;8.88;4.50;;;19.10;99.90;;;;;;4968569;28;20214;-86
2023/08/02 01:08:04;;;;;;;6.65;4.90;;;19.10;99.90;;;;;;4967237;28;20257;-87
2023/08/02 01:10:48;;;;;;;5.03;4.22;;;19.10;99.90;;;;;;4968706;28;20196;-86
2023/08/02 01:13:18;;;;;;;6.22;4.45;;;19.10;99.90;;;;;;4959162;28;20192;-87
2023/08/02 01:15:47;;;;;;;7.65;4.97;;;19.10;99.90;;;;;;4951401;28;20196;-87
2023/08/02 01:18:15;;;;;;;5.72;4.72;;;19.00;99.90;;;;;;4951400;28;20196;-86
2023/08/02 01:20:43;;;;;;;7.40;4.38;;;19.00;99.90;;;;;;4967495;28;20216;-88
2023/08/02 01:23:10;;;;;;;9.38;4.30;;;19.10;99.90;;;;;;4968563;28;20196;-87
2023/08/02 01:25:41;;;;;;;6.72;4.80;;;19.10;99.90;;;;;;4966833;28;20650;-88
2023/08/02 01:28:18;;;;;;;6.25;4.22;;;19.10;99.90;;;;;;4967098;28;20305;-87
2023/08/02 01:30:46;;;;;;;9.02;4.82;;;19.10;99.90;;;;;;4968340;28;20262;-87
2023/08/02 01:33:15;;;;;;;8.38;5.07;;;19.00;99.90;;;;;;4967394;28;20184;-86
2023/08/02 01:35:43;;;;;;;8.32;4.20;;;19.00;99.90;;;;;;4967129;28;20204;-88
2023/08/02 01:38:11;;;;;;;10.32;4.28;;;19.00;99.90;;;;;;4951722;28;20228;-86
2023/08/02 01:40:39;;;;;;;7.35;4.90;;;18.90;99.90;;;;;;4982864;28;20546;-87
2023/08/02 01:43:07;;;;;;;6.72;5.32;;;18.90;99.90;;;;;;4967993;28;20192;-86
2023/08/02 01:45:34;;;;;;;7.25;4.97;;;18.90;99.90;;;;;;4966711;28;20262;-86
2023/08/02 01:48:02;;;;;;;6.80;4.75;;;18.90;99.90;;;;;;4968078;28;20196;-86
2023/08/02 01:50:30;;;;;;;10.45;4.78;;;18.90;99.90;;;;;;4967996;28;20234;-87
2023/08/02 01:52:58;;;;;;;8.45;5.03;;;18.90;99.90;;;;;;4967889;28;20192;-87
2023/08/02 01:55:25;;;;;;;9.15;5.25;;;19.00;99.90;;;;;;4967856;28;20192;-86
2023/08/02 01:57:53;;;;;;;8.25;4.93;;;18.90;99.90;;;;;;4965114;28;20207;-86
2023/08/02 02:00:20;;;;;;;6.90;4.82;;;18.90;99.90;;;;;;4957235;28;20185;-87
2023/08/02 02:02:49;;;;;;;7.72;4.85;;;18.90;99.90;;;;;;4987811;28;20583;-86
2023/08/02 02:05:16;;;;;;;7.90;5.53;;;18.90;99.90;;;;;;4947465;29;20637;-87
2023/08/02 02:07:44;;;;;;;9.68;5.60;;;18.90;99.90;;;;;;4970456;28;20212;-85
2023/08/02 02:10:11;;;;;;;5.95;4.80;;;18.90;99.90;;;;;;4963352;28;20238;-87
2023/08/02 02:12:39;;;;;;;6.65;4.55;;;18.90;99.90;;;;;;4956332;28;20678;-87
2023/08/02 02:15:07;;;;;;;8.18;5.15;;;18.90;99.90;;;;;;4964339;28;20219;-86
2023/08/02 02:17:35;;;;;;;7.85;5.25;;;18.90;99.90;;;;;;4953590;28;20261;-86
2023/08/02 02:20:03;;;;;;;5.88;5.05;;;18.90;99.90;;;;;;4966766;28;20713;-86
2023/08/02 02:22:31;;;;;;;10.02;5.30;;;18.80;99.90;;;;;;4968043;28;20191;-86
2023/08/02 02:24:58;;;;;;;5.82;4.80;;;18.90;99.90;;;;;;4968502;28;20642;-87
2023/08/02 02:27:26;;;;;;;7.05;5.00;;;18.80;99.90;;;;;;4966561;28;20303;-88
2023/08/02 02:29:53;;;;;;;8.18;4.55;;;18.80;99.90;;;;;;4966172;28;20673;-86
2023/08/02 02:32:21;;;;;;;7.50;4.82;;;18.80;99.90;;;;;;4965949;28;20187;-85
2023/08/02 02:34:48;;;;;;;6.80;4.82;;;18.80;99.90;;;;;;4943491;28;20238;-86
2023/08/02 02:37:16;;;;;;;8.15;4.63;;;18.70;99.90;;;;;;4965132;28;20236;-86
2023/08/02 02:39:43;;;;;;;6.63;4.30;;;18.70;99.90;;;;;;4963256;28;20197;-87
2023/08/02 02:42:11;;;;;;;7.47;4.30;;;18.70;99.90;;;;;;4958112;28;20188;-87
2023/08/02 02:44:43;;;;;;;5.82;4.10;;;18.70;99.90;;;;;;4966710;28;20235;-86
2023/08/02 02:47:11;;;;;;;7.90;5.35;;;18.70;99.90;;;;;;4967151;28;20288;-86
2023/08/02 02:49:39;;;;;;;7.35;4.50;;;18.60;99.90;;;;;;4966129;28;20192;-86
2023/08/02 02:52:07;;;;;;;5.78;4.32;;;18.60;99.90;;;;;;4967305;28;20188;-88
2023/08/02 02:54:34;;;;;;;7.22;4.97;;;18.70;99.90;;;;;;4962878;28;20276;-87
2023/08/02 02:57:02;;;;;;;8.38;5.40;;;18.70;99.90;;;;;;4967612;28;20196;-87
2023/08/02 02:59:30;;;;;;;7.80;4.75;;;18.60;99.90;;;;;;4967095;28;20241;-88
2023/08/02 03:01:57;;;;;;;6.00;5.00;;;18.70;99.90;;;;;;4967167;28;20188;-86
2023/08/02 03:04:25;;;;;;;6.47;5.03;;;18.60;99.90;;;;;;4967276;28;20701;-86
2023/08/02 03:06:53;;;;;;;10.77;5.00;;;18.60;99.90;;;;;;4966242;28;20335;-87
2023/08/02 03:09:21;;;;;;;7.30;4.55;;;18.60;99.90;;;;;;4967876;28;20188;-87
2023/08/02 03:11:48;;;;;;;8.73;4.95;;;18.70;99.90;;;;;;4970160;28;20238;-87
2023/08/02 03:14:16;;;;;;;6.97;4.45;;;18.60;99.90;;;;;;4962731;28;20192;-87
2023/08/02 03:16:43;;;;;;;6.65;4.60;;;18.60;99.90;;;;;;4970028;28;20200;-87
2023/08/02 03:19:12;;;;;;;7.53;5.32;;;18.60;99.90;;;;;;4968968;28;20196;-87
2023/08/02 03:21:40;;;;;;;8.90;4.43;;;18.60;99.90;;;;;;4965642;28;20201;-85
2023/08/02 03:24:07;;;;;;;6.80;4.32;;;18.60;99.90;;;;;;5034821;28;20193;-87
2023/08/02 03:26:35;;;;;;;7.43;4.55;;;18.60;99.90;;;;;;4970183;28;20221;-86
2023/08/02 03:29:02;;;;;;;7.38;4.53;;;18.60;99.90;;;;;;4962976;28;20200;-86
2023/08/02 03:31:30;;;;;;;6.70;4.80;;;18.60;99.90;;;;;;4968822;28;20187;-86
2023/08/02 03:33:58;;;;;;;6.68;4.60;;;18.70;99.90;;;;;;4970103;28;20211;-87
2023/08/02 03:36:25;;;;;;;9.07;4.55;;;18.70;99.90;;;;;;4952957;28;20226;-85
2023/08/02 03:38:53;;;;;;;6.00;4.43;;;18.60;99.90;;;;;;4952640;28;20246;-87
2023/08/02 03:41:20;;;;;;;6.53;4.53;;;18.60;99.90;;;;;;4965610;28;20300;-87
2023/08/02 03:43:48;;;;;;;10.65;4.55;;;18.70;99.90;;;;;;4958555;28;20204;-85
2023/08/02 03:46:16;;;;;;;6.22;3.85;;;18.60;99.90;;;;;;4952437;28;20655;-87
2023/08/02 03:48:43;;;;;;;5.90;4.18;;;18.50;99.90;;;;;;4952519;28;20223;-87
2023/08/02 03:51:11;;;;;;;10.18;4.72;;;18.50;99.90;;;;;;4969008;28;20198;-85
2023/08/02 03:53:38;;;;;;;6.00;4.10;;;18.50;99.90;;;;;;4969473;28;20200;-86
2023/08/02 03:56:06;;;;;;;7.95;4.82;;;18.60;99.90;;;;;;4970378;28;20191;-87
2023/08/02 03:58:35;;;;;;;6.82;4.20;;;18.60;99.90;;;;;;4973591;28;20196;-86
2023/08/02 04:01:02;;;;;;;6.35;4.70;;;18.60;99.90;;;;;;4953152;28;20188;-87
2023/08/02 04:03:30;;;;;;;8.07;4.10;;;18.60;99.90;;;;;;4969564;28;20670;-87
2023/08/02 04:05:58;;;;;;;7.25;4.00;;;18.60;99.90;;;;;;4953125;28;20414;-86
2023/08/02 04:08:25;;;;;;;7.20;4.75;;;18.70;99.90;;;;;;4968284;28;20217;-86
2023/08/02 04:10:53;;;;;;;5.25;3.90;;;18.50;99.90;;;;;;4952690;28;20199;-86
2023/08/02 04:13:20;;;;;;;7.13;4.45;;;18.60;99.90;;;;;;4969469;28;20267;-87
2023/08/02 04:15:48;;;;;;;8.45;4.90;;;18.50;99.90;;;;;;4952284;28;20296;-87
2023/08/02 04:18:16;;;;;;;7.13;4.10;;;18.60;99.90;;;;;;4951134;28;20200;-87
2023/08/02 04:20:43;;;;;;;6.78;4.47;;;18.60;99.90;;;;;;4967540;28;20231;-87
2023/08/02 04:23:11;;;;;;;5.30;3.92;;;18.60;99.90;;;;;;4967757;28;20211;-86
2023/08/02 04:25:38;;;;;;;4.82;3.47;;;18.50;99.90;;;;;;4968563;28;20200;-87
2023/08/02 04:28:06;;;;;;;7.22;4.50;;;18.60;99.90;;;;;;4968766;28;20208;-86
2023/08/02 04:30:35;;;;;;;4.95;3.72;;;18.60;99.90;;;;;;5001802;28;20745;-86
2023/08/02 04:33:03;;;;;;;6.88;4.50;;;18.60;99.90;;;;;;4980215;28;20242;-87
2023/08/02 04:35:30;;;;;;;8.90;4.88;;;18.60;99.90;;;;;;4971134;28;20913;-86
2023/08/02 04:37:58;;;;;;;9.45;4.00;;;18.50;99.90;;;;;;4969298;28;20315;-87
2023/08/02 04:40:26;;;;;;;5.63;4.22;;;18.60;99.90;;;;;;4969752;28;20224;-87
2023/08/02 04:42:54;;;;;;;6.78;4.68;;;18.50;99.90;;;;;;4951799;28;20684;-87
2023/08/02 04:45:21;;;;;;;6.15;4.13;;;18.60;99.90;;;;;;4950596;28;20202;-88
2023/08/02 04:47:49;;;;;;;8.48;5.32;;;18.60;99.90;;;;;;5009565;28;20208;-87
2023/08/02 04:50:17;;;;;;;5.97;4.25;;;18.60;99.90;;;;;;4967419;28;20192;-87
2023/08/02 04:52:44;;;;;;;6.43;4.30;;;18.50;99.90;;;;;;4967699;28;20238;-86
2023/08/02 04:55:12;;;;;;;6.95;4.47;;;18.60;99.90;;;;;;5005652;28;20732;-86
2023/08/02 04:57:39;;;;;;;7.43;4.68;;;18.60;99.90;;;;;;4960520;28;20229;-87
2023/08/02 05:00:09;;;;;;;6.97;4.55;;;18.60;99.90;;;;;;4968817;28;20437;-85
2023/08/02 05:02:36;;;;;;;8.07;4.65;;;18.60;99.90;;;;;;4968463;28;20565;-87
2023/08/02 05:05:04;;;;;;;6.95;4.63;;;18.60;99.90;;;;;;4974288;28;20223;-85
2023/08/02 05:07:33;;;;;;;6.32;4.80;;;18.60;99.90;;;;;;4968611;28;20277;-86
2023/08/02 05:10:04;;;;;;;9.07;4.85;;;18.60;99.90;;;;;;4969029;28;20218;-85
2023/08/02 05:12:37;;;;;;;7.90;5.38;;;18.60;99.90;;;;;;4968532;28;20280;-85
2023/08/02 05:15:06;;;;;;;6.95;5.45;;;18.50;99.90;;;;;;4948071;28;20664;-87
2023/08/02 05:17:33;;;;;;;7.55;4.80;;;18.60;99.90;;;;;;4974797;28;20193;-86
2023/08/02 05:20:01;;;;;;;9.60;5.20;;;18.60;99.90;;;;;;4966830;28;20268;-85
2023/08/02 05:22:31;;;;;;;7.20;5.18;;;18.60;99.90;;;;;;4968431;28;20254;-86
2023/08/02 05:24:58;;;;;;;6.75;5.07;;;18.60;99.90;;;;;;4967525;28;20254;-87
2023/08/02 05:27:26;;;;;;;10.25;4.80;;;18.60;99.90;;;;;;4968283;28;20219;-86
2023/08/02 05:29:54;;;;;;;7.03;5.05;;;18.70;99.90;;;;;;4968170;28;20735;-86
2023/08/02 05:32:22;;;;;;;9.93;4.93;;;18.70;99.90;;;;;;4966422;28;20185;-86
2023/08/02 05:34:50;;;;;;;7.03;5.22;;;18.80;99.90;;;;;;4966162;28;20891;-85
2023/08/02 05:37:17;;;;;;;8.88;5.45;;;18.80;99.90;;;;;;4968542;28;20311;-85
2023/08/02 05:39:45;;;;;;;7.38;5.03;;;18.90;99.90;;;;;;4965424;28;20284;-88
2023/08/02 05:42:13;;;;;;;6.15;5.15;;;18.90;99.90;;;;;;4969571;28;20194;-87
2023/08/02 05:44:40;;;;;;;9.98;5.00;;;18.90;99.90;;;;;;4967225;28;20291;-85
2023/08/02 05:47:08;;;;;;;7.38;5.07;;;18.90;99.90;;;;;;4966139;28;20312;-86
2023/08/02 05:49:35;;;;;;;7.95;5.03;;;18.90;99.90;;;;;;4966105;28;20184;-86
2023/08/02 05:52:03;;;;;;;6.72;5.07;;;19.00;99.90;;;;;;4967442;28;20192;-86
2023/08/02 05:54:31;;;;;;;8.48;4.57;;;18.80;99.90;;;;;;4968748;28;20195;-87
2023/08/02 05:56:58;;;;;;;7.75;5.40;;;18.90;99.90;;;;;;4968619;28;20188;-86
2023/08/02 05:59:28;;;;;;;6.97;4.78;;;19.00;99.90;;;;;;4968535;28;20180;-85
2023/08/02 06:01:55;;;;;;;9.23;5.22;;;19.00;99.90;;;;;;4968349;28;20216;-85
2023/08/02 06:04:23;;;;;;;8.93;5.90;;;19.00;99.90;;;;;;4968109;28;20261;-87
2023/08/02 06:06:50;;;;;;;8.52;5.22;;;19.00;99.90;;;;;;4951174;28;20706;-85
2023/08/02 06:09:18;;;;;;;5.72;4.40;;;18.90;99.90;;;;;;4968375;28;20180;-88
2023/08/02 06:11:46;;;;;;;8.15;5.10;;;19.00;99.90;;;;;;4967797;28;20680;-86
2023/08/02 06:14:14;;;;;;;6.80;4.85;;;18.90;99.90;;;;;;4951163;28;20202;-87
2023/08/02 06:16:41;;;;;;;6.40;4.05;;;18.90;99.90;;;;;;4966884;28;20179;-85
2023/08/02 06:19:09;;;;;;;6.22;4.80;;;18.90;99.90;;;;;;4967978;28;20352;-88
2023/08/02 06:21:37;;;;;;;7.78;4.97;;;19.00;99.90;;;;;;4950814;28;20576;-85
2023/08/02 06:24:05;;;;;;;7.00;5.03;;;19.00;99.90;;;;;;4951054;28;20662;-88
2023/08/02 06:26:32;;;;;;;8.80;5.15;;;18.90;99.90;;;;;;4967082;28;20850;-85
2023/08/02 06:29:00;;;;;;;8.32;4.95;;;18.90;99.90;;;;;;4950657;28;20251;-87
2023/08/02 06:31:28;;;;;;;6.60;4.55;;;18.90;99.90;;;;;;4966767;28;20257;-86
2023/08/02 06:33:55;;;;;;;6.40;5.13;;;18.80;99.90;;;;;;4968314;28;20184;-85
2023/08/02 06:36:23;;;;;;;7.10;5.15;;;18.90;99.90;;;;;;4967903;28;20650;-87
2023/08/02 06:38:50;;;;;;;7.43;4.53;;;18.90;99.90;;;;;;4967373;28;20172;-86
2023/08/02 06:41:18;;;;;;;7.88;4.70;;;19.00;99.90;;;;;;4966926;28;20188;-86
2023/08/02 06:43:46;;;;;;;8.65;4.60;;;18.90;99.90;;;;;;4966630;28;20184;-86
2023/08/02 06:46:14;;;;;;;8.05;4.45;;;18.90;99.90;;;;;;4969735;28;20223;-86
2023/08/02 06:48:41;;;;;;;6.15;4.40;;;18.80;99.90;;;;;;4971042;28;20219;-87
2023/08/02 06:51:12;;;;;;;7.60;4.40;;;18.80;99.90;;;;;;4971282;28;20187;-86
2023/08/02 06:53:40;;;;;;;6.28;4.82;;;18.70;99.90;;;;;;4969851;28;20259;-86
2023/08/02 06:56:13;;;;;;;6.70;4.55;;;18.80;99.90;;;;;;4953941;28;20215;-88
2023/08/02 06:58:41;;;;;;;9.95;5.68;;;18.80;99.90;;;;;;4970086;28;20219;-85
2023/08/02 07:01:18;;;;;;;7.10;4.78;;;18.80;99.90;;;;;;4970212;28;20200;-87
2023/08/02 07:03:47;;;;;;;7.10;4.75;;;18.80;99.90;;;;;;4970870;28;20279;-86
2023/08/02 07:06:17;;;;;;;7.38;4.80;;;18.70;99.90;;;;;;4971540;28;20593;-86
2023/08/02 07:08:45;;;;;;;7.20;4.90;;;18.70;99.90;;;;;;4970858;28;20207;-85
2023/08/02 07:11:13;;;;;;;7.68;4.75;;;18.70;99.90;;;;;;4970934;28;20196;-86
2023/08/02 07:13:57;;;;;;;5.25;4.43;;;18.80;99.90;;;;;;4969822;28;20251;-85
2023/08/02 07:16:25;;;;;;;9.90;5.13;;;18.70;99.90;;;;;;4969873;28;20267;-85
2023/08/02 07:18:52;;;;;;;5.05;4.25;;;18.60;99.90;;;;;;4953555;28;20211;-87
2023/08/02 07:21:20;;;;;;;6.63;4.80;;;18.60;99.90;;;;;;4953520;28;20188;-87
2023/08/02 07:23:47;;;;;;;6.22;4.63;;;18.50;99.90;;;;;;4969253;28;20196;-86
2023/08/02 07:26:15;;;;;;;9.48;4.57;;;18.30;99.90;;;;;;4970891;28;20271;-86
2023/08/02 07:28:42;;;;;;;7.35;4.28;;;18.30;99.90;;;;;;4969504;28;20215;-86
2023/08/02 07:31:13;;;;;;;6.60;4.60;;;18.40;99.90;;;;;;4969295;28;20210;-86
2023/08/02 07:33:41;;;;;;;7.22;5.00;;;18.40;99.90;;;;;;4970490;28;20677;-86
2023/08/02 07:36:18;;;;;;;6.97;5.18;;;18.50;99.90;;;;;;4969213;28;20195;-86
2023/08/02 07:38:46;;;;;;;7.43;4.72;;;18.60;99.90;;;;;;4970451;28;20168;-86
2023/08/02 07:41:14;;;;;;;5.03;4.03;;;18.50;99.90;;;;;;4970513;28;20184;-87
2023/08/02 07:43:42;;;;;;;5.13;4.13;;;18.60;99.90;;;;;;4985788;28;20201;-87
2023/08/02 07:46:20;;;;;;;5.60;4.45;;;18.70;99.90;;;;;;4969589;28;20278;-86
2023/08/02 07:48:51;;;;;;;8.00;4.50;;;18.90;99.90;;;;;;4970640;28;20280;-86
2023/08/02 07:51:19;;;;;;;6.78;5.22;;;18.90;99.90;;;;;;4970355;28;20176;-86
2023/08/02 07:53:48;;;;;;;6.70;4.80;;;18.60;99.90;;;;;;4970633;28;20184;-85
2023/08/02 07:56:16;;;;;;;8.77;5.18;;;18.70;99.90;;;;;;4985156;28;20300;-86
2023/08/02 07:58:43;;;;;;;5.85;4.75;;;18.80;99.90;;;;;;4970294;28;20196;-86
2023/08/02 08:01:11;;;;;;;9.85;5.07;;;18.90;99.90;;;;;;4970064;28;20192;-86
2023/08/02 08:03:39;;;;;;;7.32;5.03;;;19.00;99.90;;;;;;4968756;28;20299;-86
2023/08/02 08:06:11;;;;;;;6.40;5.22;;;19.00;99.90;;;;;;4969897;28;20192;-86
2023/08/02 08:08:40;;;;;;;7.75;4.93;;;18.90;99.90;;;;;;4952761;28;20227;-85
2023/08/02 08:11:08;;;;;;;7.43;4.47;;;18.90;99.90;;;;;;4969974;28;20184;-85
2023/08/02 08:13:36;;;;;;;6.00;4.50;;;18.80;99.90;;;;;;4970090;28;20192;-87
2023/08/02 08:16:03;;;;;;;6.03;4.95;;;18.90;99.90;;;;;;4970267;28;20193;-86
2023/08/02 08:18:32;;;;;;;7.82;4.70;;;19.00;99.90;;;;;;4952771;28;20200;-86
2023/08/02 08:21:02;;;;;;;7.18;5.00;;;19.00;99.90;;;;;;4952571;28;20192;-85
2023/08/02 08:23:33;;;;;;;7.40;4.55;;;19.10;99.90;;;;;;4984678;28;20590;-86
2023/08/02 08:26:01;;;;;;;5.97;4.95;;;19.10;99.90;;;;;;4969697;28;20835;-86
2023/08/02 08:28:28;;;;;;;6.70;4.22;;;19.20;99.90;;;;;;4969471;28;20204;-85
2023/08/02 08:31:03;;;;;;;4.97;4.25;;;19.30;99.90;;;;;;4969707;28;20196;-85
2023/08/02 08:33:31;;;;;;;5.75;4.03;;;19.40;99.90;;;;;;4969744;28;20241;-86
2023/08/02 08:35:59;;;;;;;8.60;4.72;;;19.50;99.90;;;;;;4970295;28;20198;-86
2023/08/02 08:38:26;;;;;;;6.63;4.53;;;19.40;99.90;;;;;;4984440;28;20680;-87
2023/08/02 08:40:56;;;;;;;8.93;5.40;;;19.40;99.90;;;;;;4968278;28;20700;-85
2023/08/02 08:43:27;;;;;;;5.45;4.63;;;19.40;99.90;;;;;;4969770;28;20715;-86
2023/08/02 08:45:56;;;;;;;5.97;4.28;;;19.40;99.90;;;;;;4969522;28;20188;-86
2023/08/02 08:48:25;;;;;;;7.22;4.93;;;19.50;99.90;;;;;;4969690;28;20218;-86
2023/08/02 08:50:56;;;;;;;5.93;4.43;;;19.50;99.90;;;;;;4970408;28;20211;-86
2023/08/02 08:53:32;;;;;;;8.30;4.53;;;19.50;99.90;;;;;;4968224;28;20203;-86
2023/08/02 08:56:01;;;;;;;7.20;5.05;;;19.50;99.90;;;;;;4984144;28;20199;-86
2023/08/02 08:58:33;;;;;;;7.68;5.43;;;19.60;99.90;;;;;;4968123;28;20682;-86
2023/08/02 09:01:04;;;;;;;6.45;4.72;;;19.50;99.90;;;;;;4984091;28;20197;-86
2023/08/02 09:03:35;;;;;;;6.20;4.57;;;19.60;99.90;;;;;;4967754;28;20192;-85
2023/08/02 09:06:04;;;;;;;7.65;5.30;;;19.60;99.90;;;;;;4952267;28;20184;-86
2023/08/02 09:08:43;;;;;;;7.57;6.18;;;19.70;99.90;;;;;;4951539;28;20285;-86
2023/08/02 09:11:11;;;;;;;6.53;5.10;;;19.70;99.90;;;;;;4984494;28;20191;-86
2023/08/02 09:13:39;;;;;;;8.77;5.10;;;19.70;99.90;;;;;;4969886;28;20188;-87
2023/08/02 09:16:12;;;;;;;8.07;5.70;;;19.60;99.90;;;;;;4969111;28;20203;-86
2023/08/02 09:18:45;;;;;;;9.80;4.97;;;19.70;99.90;;;;;;4964388;28;20678;-87
2023/08/02 09:21:21;;;;;;;6.03;4.40;;;19.80;99.90;;;;;;4949801;29;20670;-87
2023/08/02 09:24:00;;;;;;;7.32;4.07;;;19.90;99.90;;;;;;4949582;28;20647;-87
2023/08/02 09:26:28;;;;;;;9.02;5.50;;;19.90;99.90;;;;;;4948477;29;20184;-87
2023/08/02 09:29:06;;;;;;;8.32;5.38;;;19.80;99.90;;;;;;4932626;28;20224;-86
2023/08/02 09:31:35;;;;;;;8.35;5.10;;;19.80;99.90;;;;;;4949618;29;20169;-85
2023/08/02 09:34:04;;;;;;;6.35;4.22;;;19.80;99.90;;;;;;4950192;28;20177;-87
2023/08/02 09:36:33;;;;;;;5.43;3.80;;;19.90;99.90;;;;;;4963821;28;20225;-86
2023/08/02 09:39:15;;;;;;;5.97;4.45;;;19.90;99.90;;;;;;4932481;28;20197;-87
2023/08/02 09:41:43;;;;;;;5.70;4.18;;;19.80;99.90;;;;;;4948103;29;20173;-85
2023/08/02 09:44:26;;;;;;;5.93;3.67;;;19.80;99.90;;;;;;4949385;28;20199;-86
2023/08/02 09:46:54;;;;;;;5.38;3.72;;;19.70;99.90;;;;;;4947935;28;20204;-86
2023/08/02 09:49:22;;;;;;;5.07;3.40;;;19.80;99.90;;;;;;4949243;29;20215;-85
2023/08/02 09:51:49;;;;;;;6.10;3.97;;;19.90;99.90;;;;;;4948511;29;20212;-86
2023/08/02 09:54:17;;;;;;;8.18;4.05;;;19.80;99.90;;;;;;4949270;28;20191;-85
2023/08/02 09:56:45;;;;;;;5.60;3.80;;;19.90;99.90;;;;;;4949212;28;20529;-87
2023/08/02 09:59:14;;;;;;;3.70;3.05;;;19.80;99.90;;;;;;4949298;28;20188;-85
2023/08/02 10:01:44;;;;;;;4.82;3.13;;;19.80;99.90;;;;;;4947743;29;20188;-87
2023/08/02 10:04:14;;;;;;;7.40;3.95;;;19.80;99.90;;;;;;4947930;29;20664;-87
2023/08/02 10:06:49;;;;;;;6.90;3.45;;;19.80;99.90;;;;;;4956177;28;20303;-86
2023/08/02 10:09:28;;;;;;;4.63;3.30;;;19.80;99.90;;;;;;4951609;28;20245;-87
2023/08/02 10:12:08;;;;;;;7.28;3.22;;;19.80;99.90;;;;;;4968581;28;20196;-87
2023/08/02 10:14:37;;;;;;;5.78;3.30;;;19.80;99.90;;;;;;4966731;28;20825;-87
2023/08/02 10:17:04;;;;;;;4.03;3.08;;;19.80;99.90;;;;;;4950766;28;20191;-86
2023/08/02 10:19:33;;;;;;;4.25;2.90;;;19.70;99.90;;;;;;4965587;28;20638;-84
2023/08/02 10:22:04;;;;;;;5.25;2.95;;;19.70;99.90;;;;;;4959490;28;20718;-85
2023/08/02 10:24:32;;;;;;;4.40;3.10;;;19.70;99.90;;;;;;4964456;28;20280;-85
2023/08/02 10:27:05;;;;;;;3.55;2.40;;;19.70;99.90;;;;;;4963411;28;20785;-85
2023/08/02 10:29:34;;;;;;;4.20;2.70;;;19.70;99.90;;;;;;4960718;28;20208;-86
2023/08/02 10:32:11;;;;;;;3.33;2.83;;;19.70;99.90;;;;;;4974537;28;20196;-86
2023/08/02 10:34:39;;;;;;;3.58;2.78;;;19.60;99.90;;;;;;4957851;28;20199;-85
2023/08/02 10:37:06;;;;;;;3.80;2.78;;;19.50;99.90;;;;;;4950334;28;20327;-86
2023/08/02 10:39:46;;;;;;;5.75;3.47;;;19.40;99.90;;;;;;4966264;28;20208;-85
2023/08/02 10:42:19;;;;;;;4.60;3.17;;;19.30;99.90;;;;;;4966271;28;20290;-86
2023/08/02 10:44:56;;;;;;;5.15;3.00;;;19.30;99.90;;;;;;4965912;28;20256;-86
2023/08/02 10:47:25;;;;;;;4.30;3.03;;;19.30;99.90;;;;;;4949948;28;20601;-86
2023/08/02 10:49:53;;;;;;;11.30;3.53;;;19.20;99.90;;;;;;4977958;28;20219;-86
2023/08/02 10:52:33;;;;;;;5.47;3.33;;;19.30;99.90;;;;;;4951044;28;20180;-86
2023/08/02 10:55:15;;;;;;;4.38;2.65;;;19.30;99.90;;;;;;4951118;28;20216;-88
2023/08/02 10:57:55;;;;;;;5.05;2.50;;;19.30;99.90;;;;;;4960408;28;20282;-85
2023/08/02 11:00:29;;;;;;;3.15;2.53;;;19.10;99.90;;;;;;4966326;28;20177;-84
2023/08/02 11:03:01;;;;;;;3.92;2.20;;;19.10;99.90;;;;;;4967206;28;20226;-85
2023/08/02 11:05:49;;;;;;;2.95;2.40;;;19.00;99.90;;;;;;4967341;28;20187;-86
2023/08/02 11:08:18;;;;;;;4.07;2.67;;;19.10;99.90;;;;;;4966969;28;20258;-85
2023/08/02 11:10:55;;;;;;;4.78;2.80;;;19.10;99.90;;;;;;4966034;28;20185;-85
2023/08/02 11:13:38;;;;;;;2.85;2.28;;;19.00;99.90;;;;;;4967015;28;20168;-84
2023/08/02 11:16:07;;;;;;;3.28;2.28;;;19.10;99.90;;;;;;4956830;28;20191;-85
2023/08/02 11:18:41;;;;;;;3.17;2.50;;;19.00;99.90;;;;;;4958820;28;20187;-85
2023/08/02 11:21:11;;;;;;;2.67;2.20;;;19.10;99.90;;;;;;4966192;28;20665;-85
2023/08/02 11:23:39;;;;;;;4.65;2.10;;;19.20;99.90;;;;;;4965464;28;20199;-85
2023/08/02 11:26:27;;;;;;;3.10;2.10;;;19.10;99.90;;;;;;4956359;28;20196;-85
2023/08/02 11:29:15;;;;;;;3.30;2.20;;;19.10;99.90;;;;;;4946411;28;20212;-86
2023/08/02 11:31:44;;;;;;;3.72;2.10;;;19.10;99.90;;;;;;4960587;28;20559;-85
2023/08/02 11:34:18;;;;;;;4.75;2.25;;;19.10;99.90;;;;;;4969159;28;20661;-85
2023/08/02 11:36:50;;;;;;;3.20;2.42;;;19.10;99.90;;;;;;4969645;28;20234;-85
2023/08/02 11:39:19;;;;;;;4.00;2.45;;;19.10;99.90;;;;;;4969045;28;20555;-86
2023/08/02 11:42:03;;;;;;;3.63;2.67;;;19.20;99.90;;;;;;4968873;28;20276;-86
2023/08/02 11:44:31;;;;;;;4.75;2.58;;;19.20;99.90;;;;;;4969208;28;20176;-84
2023/08/02 11:47:00;;;;;;;6.72;2.67;;;19.20;99.90;;;;;;4969970;28;20187;-86
2023/08/02 11:49:28;;;;;;;6.57;2.08;;;19.20;99.90;;;;;;4968698;28;20227;-86
2023/08/02 11:51:56;;;;;;;4.72;2.42;;;19.10;99.90;;;;;;4967736;28;20222;-86
2023/08/02 11:54:26;;;;;;;2.70;2.10;;;19.10;99.90;;;;;;4970179;28;20184;-84
2023/08/02 11:56:54;;;;;;;2.75;2.10;;;19.20;99.90;;;;;;4968835;28;20193;-85
2023/08/02 11:59:22;;;;;;;3.92;1.95;;;19.00;99.90;;;;;;4968611;28;20290;-86
2023/08/02 12:01:53;;;;;;;2.88;2.17;;;19.10;99.90;;;;;;4968933;28;20733;-85
2023/08/02 12:04:22;;;;;;;2.97;2.17;;;18.90;99.90;;;;;;4965437;28;20592;-85
2023/08/02 12:06:52;;;;;;;5.03;2.08;;;19.00;99.90;;;;;;4950765;28;20189;-86
2023/08/02 12:09:40;;;;;;;4.43;2.20;;;19.00;99.90;;;;;;4965311;28;20224;-86
2023/08/02 12:12:08;;;;;;;2.67;2.15;;;19.10;99.90;;;;;;4949161;29;20185;-86
2023/08/02 12:14:36;;;;;;;4.55;2.15;;;19.20;99.90;;;;;;4965117;28;20181;-85
2023/08/02 12:17:05;;;;;;;3.88;2.20;;;19.10;99.90;;;;;;4965306;28;20246;-85
2023/08/02 12:19:45;;;;;;;3.97;2.47;;;19.20;99.90;;;;;;4965206;28;20201;-86
2023/08/02 12:22:17;;;;;;;2.70;2.03;;;19.30;99.90;;;;;;4944581;28;20579;-86
2023/08/02 12:25:02;;;;;;;2.40;1.80;;;19.20;99.90;;;;;;4955021;28;20250;-85
2023/08/02 12:27:33;;;;;;;3.20;2.20;;;19.20;99.90;;;;;;4952728;28;20197;-84
2023/08/02 12:30:11;;;;;;;4.13;2.40;;;19.30;99.90;;;;;;4968403;28;20269;-85
2023/08/02 12:32:39;;;;;;;4.00;2.28;;;19.20;99.90;;;;;;4967778;28;20187;-86
2023/08/02 12:35:08;;;;;;;3.15;2.15;;;19.20;99.90;;;;;;4968349;28;20682;-85
2023/08/02 12:37:39;;;;;;;3.15;1.80;;;19.20;99.90;;;;;;4968524;28;20230;-85
2023/08/02 12:40:07;;;;;;;3.58;2.47;;;19.20;99.90;;;;;;4968028;28;20537;-85
2023/08/02 12:42:35;;;;;;;4.57;2.45;;;19.20;99.90;;;;;;4951385;28;20204;-86
2023/08/02 12:45:26;;;;;;;3.08;2.20;;;19.20;99.90;;;;;;4978429;28;20211;-85
2023/08/02 12:47:53;;;;;;;2.90;2.10;;;19.30;99.90;;;;;;4967768;28;20195;-86
2023/08/02 12:50:22;;;;;;;3.30;1.90;;;19.40;99.90;;;;;;4969209;28;20212;-86
2023/08/02 12:52:55;;;;;;;3.63;2.17;;;19.40;99.90;;;;;;4966147;28;20184;-85
2023/08/02 12:55:24;;;;;;;3.38;2.40;;;19.30;99.90;;;;;;4962018;28;20211;-84
2023/08/02 12:57:52;;;;;;;2.78;2.17;;;19.20;99.90;;;;;;4959446;28;20413;-86